メインページ
METAR-TAF:

METAR-TAF

空港 :

パース空港

パース, オーストラリア

緯度: 31-56S, 経度: 115-57E, 海抜: 20m

現時点の気象観測

当レポートは14分前の21:00(UTC)に作成
東/北東の風 11kt
気温 14°C
湿度 36%
気圧 1019 hPa
視程10km以上
1,500メートル以下は雲なし、積乱雲なし

METAR: YPPH 222100Z 07011KT CAVOK 14/M01 Q1019

時間: 05:14 (21:14 UTC)

予報

当レポートは4時間12分前の17:02(UTC)に作成
予報は22日の 18時(UTC)から 23日の 24時(UTC)まで有効
北東の風 8kt
視程10km以上
1,500メートル以下は雲なし、積乱雲なし
23日の 0300時(UTC)から
北/北東の風 6kt
視程10km以上
1,500メートル以下は雲なし、積乱雲なし
23日の 1500時(UTC)から
北東の風 10kt
視程10km以上
1,500メートル以下は雲なし、積乱雲なし

TAF: YPPH 221702Z 2218/2324 05008KT CAVOK FM230300 02006KT CAVOK FM231500 05010KT CAVOK

4,000以上の空港の気象観測と天気予報(METAR報とTAF報)

利用可能な観測所は地図上に黄色い丸と赤い丸で示す。

丸の上にカーソルを重ねると観測所名を参照できる。

次にクリックすると気象観測と天気予報を参照できる。

マップの切り替え:黒色「×」印の緑ボタンをクリックして拡大、「-」印の緑ボタンをクリックして縮小、緑色の三角印をクリックして隣りの地図に切り替え


METAR-TAF: